sensor_id;sensor_type;location;lat;lon;timestamp;pressure;altitude;pressure_sealevel;temperature;humidity
4044;BME280;2036;51.578;7.108;2022-09-12T00:01:12;101041.53;;;12.63;100.00
4044;BME280;2036;51.578;7.108;2022-09-12T00:03:38;101047.06;;;12.60;100.00
4044;BME280;2036;51.578;7.108;2022-09-12T00:06:39;101041.31;;;12.55;100.00
4044;BME280;2036;51.578;7.108;2022-09-12T00:09:11;101036.25;;;12.52;100.00
4044;BME280;2036;51.578;7.108;2022-09-12T00:11:43;101037.34;;;12.49;100.00
4044;BME280;2036;51.578;7.108;2022-09-12T00:14:16;101021.78;;;12.46;100.00
4044;BME280;2036;51.578;7.108;2022-09-12T00:16:43;101019.41;;;12.43;100.00
4044;BME280;2036;51.578;7.108;2022-09-12T00:19:10;101020.34;;;12.42;100.00
4044;BME280;2036;51.578;7.108;2022-09-12T00:21:38;101015.91;;;12.43;100.00
4044;BME280;2036;51.578;7.108;2022-09-12T00:24:04;101020.22;;;12.44;100.00
4044;BME280;2036;51.578;7.108;2022-09-12T00:26:31;101020.47;;;12.41;100.00
4044;BME280;2036;51.578;7.108;2022-09-12T00:28:56;101015.31;;;12.39;100.00
4044;BME280;2036;51.578;7.108;2022-09-12T00:31:25;101009.22;;;12.39;100.00
4044;BME280;2036;51.578;7.108;2022-09-12T00:33:53;101013.03;;;12.34;100.00
4044;BME280;2036;51.578;7.108;2022-09-12T00:36:23;101007.03;;;12.32;100.00
4044;BME280;2036;51.578;7.108;2022-09-12T00:38:49;101009.09;;;12.29;100.00
4044;BME280;2036;51.578;7.108;2022-09-12T00:41:24;101008.47;;;12.25;100.00
4044;BME280;2036;51.578;7.108;2022-09-12T00:43:54;101001.78;;;12.21;100.00
4044;BME280;2036;51.578;7.108;2022-09-12T00:49:34;101002.00;;;12.18;100.00
4044;BME280;2036;51.578;7.108;2022-09-12T00:52:43;100996.16;;;12.15;100.00
4044;BME280;2036;51.578;7.108;2022-09-12T00:55:19;100998.06;;;12.13;100.00
4044;BME280;2036;51.578;7.108;2022-09-12T00:57:56;100986.94;;;12.09;100.00
4044;BME280;2036;51.578;7.108;2022-09-12T01:00:25;100988.00;;;12.07;100.00
4044;BME280;2036;51.578;7.108;2022-09-12T01:03:08;100989.06;;;12.04;100.00
4044;BME280;2036;51.578;7.108;2022-09-12T01:05:43;100980.59;;;12.01;100.00
4044;BME280;2036;51.578;7.108;2022-09-12T01:09:59;100973.75;;;11.98;100.00
4044;BME280;2036;51.578;7.108;2022-09-12T01:12:28;100984.28;;;11.98;100.00
4044;BME280;2036;51.578;7.108;2022-09-12T01:14:54;100988.81;;;11.96;100.00
4044;BME280;2036;51.578;7.108;2022-09-12T01:17:20;100980.09;;;11.96;100.00
4044;BME280;2036;51.578;7.108;2022-09-12T01:20:20;100985.44;;;11.94;100.00
4044;BME280;2036;51.578;7.108;2022-09-12T01:23:01;100977.56;;;11.94;100.00
4044;BME280;2036;51.578;7.108;2022-09-12T01:29:04;100985.78;;;11.90;100.00
4044;BME280;2036;51.578;7.108;2022-09-12T01:31:58;100988.56;;;11.88;100.00
4044;BME280;2036;51.578;7.108;2022-09-12T01:37:46;100980.16;;;11.83;100.00
4044;BME280;2036;51.578;7.108;2022-09-12T01:43:59;100977.03;;;11.78;100.00
4044;BME280;2036;51.578;7.108;2022-09-12T01:46:56;100976.44;;;11.75;100.00
4044;BME280;2036;51.578;7.108;2022-09-12T01:49:59;100973.09;;;11.73;100.00
4044;BME280;2036;51.578;7.108;2022-09-12T01:55:22;100972.47;;;11.69;100.00
4044;BME280;2036;51.578;7.108;2022-09-12T02:00:23;100967.53;;;11.64;100.00
4044;BME280;2036;51.578;7.108;2022-09-12T02:03:02;100964.06;;;11.64;100.00
4044;BME280;2036;51.578;7.108;2022-09-12T02:05:46;100957.16;;;11.63;100.00
4044;BME280;2036;51.578;7.108;2022-09-12T02:08:37;100956.09;;;11.65;100.00
4044;BME280;2036;51.578;7.108;2022-09-12T02:11:10;100951.56;;;11.68;100.00
4044;BME280;2036;51.578;7.108;2022-09-12T02:13:53;100945.13;;;11.72;100.00
4044;BME280;2036;51.578;7.108;2022-09-12T02:19:15;100950.66;;;11.80;100.00
4044;BME280;2036;51.578;7.108;2022-09-12T02:21:52;100951.38;;;11.82;100.00
4044;BME280;2036;51.578;7.108;2022-09-12T02:24:21;100948.63;;;11.83;100.00
4044;BME280;2036;51.578;7.108;2022-09-12T02:27:11;100952.94;;;11.84;100.00
4044;BME280;2036;51.578;7.108;2022-09-12T02:29:39;100946.09;;;11.82;100.00
4044;BME280;2036;51.578;7.108;2022-09-12T02:32:30;100946.97;;;11.82;100.00
4044;BME280;2036;51.578;7.108;2022-09-12T02:35:16;100946.97;;;11.82;100.00
4044;BME280;2036;51.578;7.108;2022-09-12T02:38:06;100938.31;;;11.80;100.00
4044;BME280;2036;51.578;7.108;2022-09-12T02:40:34;100940.84;;;11.82;100.00
4044;BME280;2036;51.578;7.108;2022-09-12T02:43:03;100945.28;;;11.81;100.00
4044;BME280;2036;51.578;7.108;2022-09-12T02:45:30;100943.56;;;11.80;100.00
4044;BME280;2036;51.578;7.108;2022-09-12T02:48:11;100933.91;;;11.81;100.00
4044;BME280;2036;51.578;7.108;2022-09-12T02:50:40;100925.16;;;11.80;100.00
4044;BME280;2036;51.578;7.108;2022-09-12T02:53:07;100927.00;;;11.80;100.00
4044;BME280;2036;51.578;7.108;2022-09-12T02:55:35;100931.41;;;11.79;100.00
4044;BME280;2036;51.578;7.108;2022-09-12T02:58:05;100928.78;;;11.79;100.00
4044;BME280;2036;51.578;7.108;2022-09-12T03:00:53;100930.44;;;11.80;100.00
4044;BME280;2036;51.578;7.108;2022-09-12T03:18:13;100916.81;;;11.75;100.00
4044;BME280;2036;51.578;7.108;2022-09-12T03:24:01;100920.88;;;11.68;100.00
4044;BME280;2036;51.578;7.108;2022-09-12T03:29:11;100921.59;;;11.70;100.00
4044;BME280;2036;51.578;7.108;2022-09-12T03:31:49;100919.78;;;11.71;100.00
4044;BME280;2036;51.578;7.108;2022-09-12T03:34:16;100910.34;;;11.68;100.00
4044;BME280;2036;51.578;7.108;2022-09-12T03:36:42;100914.63;;;11.69;100.00
4044;BME280;2036;51.578;7.108;2022-09-12T03:39:08;100917.28;;;11.69;100.00
4044;BME280;2036;51.578;7.108;2022-09-12T03:41:33;100921.59;;;11.70;100.00
4044;BME280;2036;51.578;7.108;2022-09-12T03:44:01;100914.41;;;11.72;100.00
4044;BME280;2036;51.578;7.108;2022-09-12T03:46:26;100916.91;;;11.74;100.00
4044;BME280;2036;51.578;7.108;2022-09-12T03:48:52;100909.16;;;11.72;100.00
4044;BME280;2036;51.578;7.108;2022-09-12T03:51:18;100918.97;;;11.70;100.00
4044;BME280;2036;51.578;7.108;2022-09-12T03:53:44;100912.72;;;11.71;100.00
4044;BME280;2036;51.578;7.108;2022-09-12T03:56:13;100914.41;;;11.72;100.00
4044;BME280;2036;51.578;7.108;2022-09-12T03:58:39;100916.44;;;11.68;100.00
4044;BME280;2036;51.578;7.108;2022-09-12T04:01:11;100923.56;;;11.66;100.00
4044;BME280;2036;51.578;7.108;2022-09-12T04:03:42;100916.88;;;11.62;100.00
4044;BME280;2036;51.578;7.108;2022-09-12T04:06:11;100910.91;;;11.60;100.00
4044;BME280;2036;51.578;7.108;2022-09-12T04:08:38;100915.66;;;11.55;100.00
4044;BME280;2036;51.578;7.108;2022-09-12T04:11:07;100914.94;;;11.53;100.00
4044;BME280;2036;51.578;7.108;2022-09-12T04:13:37;100912.41;;;11.52;100.00
4044;BME280;2036;51.578;7.108;2022-09-12T04:16:04;100913.38;;;11.51;100.00
4044;BME280;2036;51.578;7.108;2022-09-12T04:18:32;100915.38;;;11.47;100.00
4044;BME280;2036;51.578;7.108;2022-09-12T04:21:00;100917.06;;;11.48;100.00
4044;BME280;2036;51.578;7.108;2022-09-12T04:23:28;100910.38;;;11.44;100.00
4044;BME280;2036;51.578;7.108;2022-09-12T04:25:59;100913.72;;;11.46;100.00
4044;BME280;2036;51.578;7.108;2022-09-12T04:28:26;100917.41;;;11.44;100.00
4044;BME280;2036;51.578;7.108;2022-09-12T04:30:54;100910.59;;;11.41;100.00
4044;BME280;2036;51.578;7.108;2022-09-12T04:33:20;100902.84;;;11.40;100.00
4044;BME280;2036;51.578;7.108;2022-09-12T04:35:47;100897.69;;;11.38;100.00
4044;BME280;2036;51.578;7.108;2022-09-12T04:38:13;100908.09;;;11.40;100.00
4044;BME280;2036;51.578;7.108;2022-09-12T04:40:39;100905.56;;;11.38;100.00
4044;BME280;2036;51.578;7.108;2022-09-12T04:43:05;100906.41;;;11.39;100.00
4044;BME280;2036;51.578;7.108;2022-09-12T04:45:32;100904.50;;;11.41;100.00
4044;BME280;2036;51.578;7.108;2022-09-12T04:47:58;100905.56;;;11.38;100.00
4044;BME280;2036;51.578;7.108;2022-09-12T04:50:36;100909.16;;;11.37;100.00
4044;BME280;2036;51.578;7.108;2022-09-12T04:53:02;100911.16;;;11.34;100.00
4044;BME280;2036;51.578;7.108;2022-09-12T04:55:28;100897.81;;;11.37;100.00
4044;BME280;2036;51.578;7.108;2022-09-12T04:57:54;100896.25;;;11.34;100.00
4044;BME280;2036;51.578;7.108;2022-09-12T05:00:20;100893.41;;;11.37;100.00
4044;BME280;2036;51.578;7.108;2022-09-12T05:02:46;100884.44;;;11.40;100.00
4044;BME280;2036;51.578;7.108;2022-09-12T05:05:12;100890.78;;;11.37;100.00
4044;BME280;2036;51.578;7.108;2022-09-12T05:07:38;100888.00;;;11.39;100.00
4044;BME280;2036;51.578;7.108;2022-09-12T05:10:04;100880.00;;;11.40;100.00
4044;BME280;2036;51.578;7.108;2022-09-12T05:12:30;100878.22;;;11.41;100.00
4044;BME280;2036;51.578;7.108;2022-09-12T05:14:56;100878.00;;;11.44;100.00
4044;BME280;2036;51.578;7.108;2022-09-12T05:17:22;100872.75;;;11.44;100.00
4044;BME280;2036;51.578;7.108;2022-09-12T05:19:48;100868.34;;;11.44;100.00
4044;BME280;2036;51.578;7.108;2022-09-12T05:22:14;100876.09;;;11.46;100.00
4044;BME280;2036;51.578;7.108;2022-09-12T05:24:39;100881.13;;;11.49;100.00
4044;BME280;2036;51.578;7.108;2022-09-12T05:27:08;100880.88;;;11.52;100.00
4044;BME280;2036;51.578;7.108;2022-09-12T05:29:34;100881.38;;;11.57;100.00
4044;BME280;2036;51.578;7.108;2022-09-12T05:32:01;100877.56;;;11.61;100.00
4044;BME280;2036;51.578;7.108;2022-09-12T05:34:27;100874.69;;;11.64;100.00
4044;BME280;2036;51.578;7.108;2022-09-12T05:36:53;100875.34;;;11.68;100.00
4044;BME280;2036;51.578;7.108;2022-09-12T05:39:18;100873.91;;;11.75;100.00
4044;BME280;2036;51.578;7.108;2022-09-12T05:41:44;100874.41;;;11.80;100.00
4044;BME280;2036;51.578;7.108;2022-09-12T05:44:12;100879.31;;;11.84;100.00
4044;BME280;2036;51.578;7.108;2022-09-12T05:46:42;100869.38;;;11.88;100.00
4044;BME280;2036;51.578;7.108;2022-09-12T05:49:11;100867.94;;;11.95;100.00
4044;BME280;2036;51.578;7.108;2022-09-12T05:51:41;100878.81;;;12.01;100.00
4044;BME280;2036;51.578;7.108;2022-09-12T05:54:11;100877.06;;;12.13;100.00
4044;BME280;2036;51.578;7.108;2022-09-12T05:56:40;100881.69;;;12.20;100.00
4044;BME280;2036;51.578;7.108;2022-09-12T05:59:17;100885.28;;;12.30;100.00
4044;BME280;2036;51.578;7.108;2022-09-12T06:01:44;100886.25;;;12.41;100.00
4044;BME280;2036;51.578;7.108;2022-09-12T06:04:10;100893.41;;;12.50;100.00
4044;BME280;2036;51.578;7.108;2022-09-12T06:06:42;100891.59;;;12.61;100.00
4044;BME280;2036;51.578;7.108;2022-09-12T06:09:10;100889.28;;;12.68;100.00
4044;BME280;2036;51.578;7.108;2022-09-12T06:11:38;100900.78;;;12.78;100.00
4044;BME280;2036;51.578;7.108;2022-09-12T06:14:09;100893.69;;;12.89;100.00
4044;BME280;2036;51.578;7.108;2022-09-12T06:16:36;100891.84;;;13.01;100.00
4044;BME280;2036;51.578;7.108;2022-09-12T06:19:17;100897.94;;;13.13;100.00
4044;BME280;2036;51.578;7.108;2022-09-12T06:21:45;100900.66;;;13.22;100.00
4044;BME280;2036;51.578;7.108;2022-09-12T06:24:12;100897.16;;;13.33;100.00
4044;BME280;2036;51.578;7.108;2022-09-12T06:26:38;100895.28;;;13.44;100.00
4044;BME280;2036;51.578;7.108;2022-09-12T06:29:04;100894.50;;;13.53;100.00
4044;BME280;2036;51.578;7.108;2022-09-12T06:31:33;100896.38;;;13.62;100.00
4044;BME280;2036;51.578;7.108;2022-09-12T06:34:07;100892.97;;;13.71;100.00
4044;BME280;2036;51.578;7.108;2022-09-12T06:36:40;100901.06;;;13.80;100.00
4044;BME280;2036;51.578;7.108;2022-09-12T06:39:11;100890.56;;;13.89;100.00
4044;BME280;2036;51.578;7.108;2022-09-12T06:41:38;100896.88;;;13.98;100.00
4044;BME280;2036;51.578;7.108;2022-09-12T06:44:04;100888.16;;;14.07;100.00
4044;BME280;2036;51.578;7.108;2022-09-12T06:46:31;100886.81;;;14.12;100.00
4044;BME280;2036;51.578;7.108;2022-09-12T06:48:59;100883.63;;;14.18;100.00
4044;BME280;2036;51.578;7.108;2022-09-12T06:51:27;100885.34;;;14.29;100.00
4044;BME280;2036;51.578;7.108;2022-09-12T06:53:55;100887.22;;;14.38;100.00
4044;BME280;2036;51.578;7.108;2022-09-12T06:56:24;100896.00;;;14.48;100.00
4044;BME280;2036;51.578;7.108;2022-09-12T06:58:52;100888.91;;;14.58;100.00
4044;BME280;2036;51.578;7.108;2022-09-12T07:01:27;100887.97;;;14.69;100.00
4044;BME280;2036;51.578;7.108;2022-09-12T07:03:56;100881.63;;;14.81;100.00
4044;BME280;2036;51.578;7.108;2022-09-12T07:06:26;100883.00;;;14.94;100.00
4044;BME280;2036;51.578;7.108;2022-09-12T07:09:00;100886.22;;;15.07;100.00
4044;BME280;2036;51.578;7.108;2022-09-12T07:11:33;100889.84;;;15.16;100.00
4044;BME280;2036;51.578;7.108;2022-09-12T07:14:01;100890.81;;;15.25;100.00
4044;BME280;2036;51.578;7.108;2022-09-12T07:16:28;100890.81;;;15.34;100.00
4044;BME280;2036;51.578;7.108;2022-09-12T07:18:58;100884.44;;;15.46;100.00
4044;BME280;2036;51.578;7.108;2022-09-12T07:21:25;100891.38;;;15.57;100.00
4044;BME280;2036;51.578;7.108;2022-09-12T07:23:51;100891.06;;;15.69;100.00
4044;BME280;2036;51.578;7.108;2022-09-12T07:26:19;100901.78;;;15.87;100.00
4044;BME280;2036;51.578;7.108;2022-09-12T07:28:50;100895.22;;;15.91;100.00
4044;BME280;2036;51.578;7.108;2022-09-12T07:31:23;100892.50;;;16.10;100.00
4044;BME280;2036;51.578;7.108;2022-09-12T07:33:50;100883.53;;;16.21;100.00
4044;BME280;2036;51.578;7.108;2022-09-12T07:36:22;100878.47;;;16.27;100.00
4044;BME280;2036;51.578;7.108;2022-09-12T07:38:54;100873.69;;;16.40;100.00
4044;BME280;2036;51.578;7.108;2022-09-12T07:41:25;100881.59;;;16.50;100.00
4044;BME280;2036;51.578;7.108;2022-09-12T07:43:53;100877.34;;;16.67;100.00
4044;BME280;2036;51.578;7.108;2022-09-12T07:46:19;100877.78;;;16.80;100.00
4044;BME280;2036;51.578;7.108;2022-09-12T07:48:55;100880.53;;;16.88;100.00
4044;BME280;2036;51.578;7.108;2022-09-12T07:51:23;100885.31;;;17.02;100.00
4044;BME280;2036;51.578;7.108;2022-09-12T07:53:49;100886.38;;;17.09;100.00
4044;BME280;2036;51.578;7.108;2022-09-12T07:56:17;100873.72;;;17.21;100.00
4044;BME280;2036;51.578;7.108;2022-09-12T07:58:45;100878.88;;;17.22;100.00
4044;BME280;2036;51.578;7.108;2022-09-12T08:03:43;100878.03;;;17.39;100.00
4044;BME280;2036;51.578;7.108;2022-09-12T08:06:20;100876.84;;;17.51;100.00
4044;BME280;2036;51.578;7.108;2022-09-12T08:08:49;100886.22;;;17.63;100.00
4044;BME280;2036;51.578;7.108;2022-09-12T08:11:18;100889.81;;;17.80;100.00
4044;BME280;2036;51.578;7.108;2022-09-12T08:13:45;100895.34;;;17.95;100.00
4044;BME280;2036;51.578;7.108;2022-09-12T08:16:17;100890.53;;;18.16;100.00
4044;BME280;2036;51.578;7.108;2022-09-12T08:18:45;100900.88;;;18.35;100.00
4044;BME280;2036;51.578;7.108;2022-09-12T08:21:20;100889.78;;;18.65;100.00
4044;BME280;2036;51.578;7.108;2022-09-12T08:23:59;100894.13;;;18.90;100.00
4044;BME280;2036;51.578;7.108;2022-09-12T08:26:29;100893.34;;;19.22;100.00
4044;BME280;2036;51.578;7.108;2022-09-12T08:28:55;100892.22;;;19.49;100.00
4044;BME280;2036;51.578;7.108;2022-09-12T08:31:23;100891.53;;;19.79;100.00
4044;BME280;2036;51.578;7.108;2022-09-12T08:33:50;100894.81;;;20.05;100.00
4044;BME280;2036;51.578;7.108;2022-09-12T08:36:23;100885.28;;;20.27;100.00
4044;BME280;2036;51.578;7.108;2022-09-12T08:38:54;100884.75;;;20.31;100.00
4044;BME280;2036;51.578;7.108;2022-09-12T08:56:04;100868.38;;;23.02;100.00
4044;BME280;2036;51.578;7.108;2022-09-12T08:58:39;100867.69;;;23.57;100.00
4044;BME280;2036;51.578;7.108;2022-09-12T09:01:23;100870.94;;;23.80;100.00
4044;BME280;2036;51.578;7.108;2022-09-12T09:04:23;100872.75;;;23.73;100.00
4044;BME280;2036;51.578;7.108;2022-09-12T09:10:07;100889.09;;;24.12;100.00
4044;BME280;2036;51.578;7.108;2022-09-12T09:15:58;100884.50;;;24.88;100.00
4044;BME280;2036;51.578;7.108;2022-09-12T09:18:31;100890.06;;;24.80;100.00
4044;BME280;2036;51.578;7.108;2022-09-12T09:21:08;100870.72;;;25.30;100.00
4044;BME280;2036;51.578;7.108;2022-09-12T09:23:42;100866.22;;;25.50;100.00
4044;BME280;2036;51.578;7.108;2022-09-12T09:28:54;100865.81;;;25.60;100.00
4044;BME280;2036;51.578;7.108;2022-09-12T09:31:24;100869.31;;;25.73;100.00
4044;BME280;2036;51.578;7.108;2022-09-12T09:33:54;100870.56;;;25.71;100.00
4044;BME280;2036;51.578;7.108;2022-09-12T09:36:49;100859.47;;;26.31;100.00
4044;BME280;2036;51.578;7.108;2022-09-12T09:42:29;100853.16;;;26.51;100.00
4044;BME280;2036;51.578;7.108;2022-09-12T09:45:10;100869.66;;;26.67;100.00
4044;BME280;2036;51.578;7.108;2022-09-12T09:47:37;100853.72;;;26.66;100.00
4044;BME280;2036;51.578;7.108;2022-09-12T09:50:05;100859.50;;;26.69;100.00
4044;BME280;2036;51.578;7.108;2022-09-12T09:52:31;100857.88;;;26.62;100.00
4044;BME280;2036;51.578;7.108;2022-09-12T09:55:00;100852.47;;;26.62;100.00
4044;BME280;2036;51.578;7.108;2022-09-12T10:00:22;100845.56;;;27.84;100.00
4044;BME280;2036;51.578;7.108;2022-09-12T10:05:47;100846.28;;;28.52;100.00
4044;BME280;2036;51.578;7.108;2022-09-12T10:08:39;100846.75;;;28.79;100.00
4044;BME280;2036;51.578;7.108;2022-09-12T10:11:27;100834.47;;;28.83;100.00
4044;BME280;2036;51.578;7.108;2022-09-12T10:13:56;100837.09;;;28.71;100.00
4044;BME280;2036;51.578;7.108;2022-09-12T10:16:46;100830.78;;;29.19;100.00
4044;BME280;2036;51.578;7.108;2022-09-12T10:19:21;100832.13;;;29.28;100.00
4044;BME280;2036;51.578;7.108;2022-09-12T10:21:54;100833.50;;;29.30;100.00
4044;BME280;2036;51.578;7.108;2022-09-12T10:24:50;100820.81;;;29.65;100.00
4044;BME280;2036;51.578;7.108;2022-09-12T10:27:30;100813.88;;;30.04;100.00
4044;BME280;2036;51.578;7.108;2022-09-12T10:30:26;100815.66;;;30.27;100.00
4044;BME280;2036;51.578;7.108;2022-09-12T10:33:04;100808.19;;;30.74;100.00
4044;BME280;2036;51.578;7.108;2022-09-12T10:35:44;100809.09;;;30.91;100.00
4044;BME280;2036;51.578;7.108;2022-09-12T10:38:33;100817.38;;;30.56;100.00
4044;BME280;2036;51.578;7.108;2022-09-12T10:41:07;100809.63;;;30.48;100.00
4044;BME280;2036;51.578;7.108;2022-09-12T10:43:39;100800.13;;;30.34;100.00
4044;BME280;2036;51.578;7.108;2022-09-12T10:48:42;100805.09;;;30.25;100.00
4044;BME280;2036;51.578;7.108;2022-09-12T10:54:01;100797.91;;;30.31;100.00
4044;BME280;2036;51.578;7.108;2022-09-12T10:56:30;100790.44;;;30.50;100.00
4044;BME280;2036;51.578;7.108;2022-09-12T11:12:35;100781.63;;;30.87;100.00
4044;BME280;2036;51.578;7.108;2022-09-12T11:30:01;100757.78;;;30.73;100.00
4044;BME280;2036;51.578;7.108;2022-09-12T11:35:28;100761.25;;;30.85;100.00
4044;BME280;2036;51.578;7.108;2022-09-12T11:40:59;100758.78;;;31.33;100.00
4044;BME280;2036;51.578;7.108;2022-09-12T11:43:52;100757.72;;;31.51;100.00
4044;BME280;2036;51.578;7.108;2022-09-12T11:54:36;100749.06;;;31.75;100.00
4044;BME280;2036;51.578;7.108;2022-09-12T12:02:34;100750.97;;;31.75;100.00
4044;BME280;2036;51.578;7.108;2022-09-12T12:08:03;100743.97;;;31.79;100.00
4044;BME280;2036;51.578;7.108;2022-09-12T12:10:53;100745.09;;;31.83;100.00
4044;BME280;2036;51.578;7.108;2022-09-12T12:16:37;100731.22;;;32.01;100.00
4044;BME280;2036;51.578;7.108;2022-09-12T12:21:49;100719.38;;;32.07;100.00
4044;BME280;2036;51.578;7.108;2022-09-12T12:24:25;100730.22;;;31.86;100.00
4044;BME280;2036;51.578;7.108;2022-09-12T12:27:03;100726.94;;;31.84;100.00
4044;BME280;2036;51.578;7.108;2022-09-12T12:29:43;100732.66;;;31.87;100.00
4044;BME280;2036;51.578;7.108;2022-09-12T12:34:40;100717.34;;;31.98;100.00
4044;BME280;2036;51.578;7.108;2022-09-12T12:47:58;100712.28;;;30.02;100.00
4044;BME280;2036;51.578;7.108;2022-09-12T12:50:29;100695.34;;;29.95;100.00
4044;BME280;2036;51.578;7.108;2022-09-12T12:58:36;100680.97;;;30.67;100.00
4044;BME280;2036;51.578;7.108;2022-09-12T13:01:19;100676.13;;;31.02;100.00
4044;BME280;2036;51.578;7.108;2022-09-12T13:03:58;100681.81;;;31.39;100.00
4044;BME280;2036;51.578;7.108;2022-09-12T13:06:42;100690.38;;;31.31;100.00
4044;BME280;2036;51.578;7.108;2022-09-12T13:09:29;100675.97;;;31.69;100.00
4044;BME280;2036;51.578;7.108;2022-09-12T13:12:03;100668.31;;;31.88;100.00
4044;BME280;2036;51.578;7.108;2022-09-12T13:17:38;100670.13;;;31.55;100.00
4044;BME280;2036;51.578;7.108;2022-09-12T13:20:26;100675.97;;;31.09;100.00
4044;BME280;2036;51.578;7.108;2022-09-12T13:22:54;100665.81;;;30.66;100.00
4044;BME280;2036;51.578;7.108;2022-09-12T13:25:35;100663.06;;;30.33;100.00
4044;BME280;2036;51.578;7.108;2022-09-12T13:28:15;100654.97;;;30.21;100.00
4044;BME280;2036;51.578;7.108;2022-09-12T13:30:59;100653.88;;;29.77;100.00
4044;BME280;2036;51.578;7.108;2022-09-12T13:33:53;100636.19;;;29.75;100.00
4044;BME280;2036;51.578;7.108;2022-09-12T13:37:19;100641.91;;;29.62;100.00
4044;BME280;2036;51.578;7.108;2022-09-12T13:39:32;100648.78;;;29.41;100.00
4044;BME280;2036;51.578;7.108;2022-09-12T13:42:41;100641.47;;;29.53;100.00
4044;BME280;2036;51.578;7.108;2022-09-12T13:45:21;100631.41;;;29.26;99.91
4044;BME280;2036;51.578;7.108;2022-09-12T13:47:51;100641.44;;;29.25;100.00
4044;BME280;2036;51.578;7.108;2022-09-12T13:50:24;100649.84;;;29.17;100.00
4044;BME280;2036;51.578;7.108;2022-09-12T13:52:59;100635.31;;;29.30;100.00
4044;BME280;2036;51.578;7.108;2022-09-12T13:55:31;100627.84;;;29.48;100.00
4044;BME280;2036;51.578;7.108;2022-09-12T13:58:02;100630.41;;;29.55;100.00
4044;BME280;2036;51.578;7.108;2022-09-12T14:00:32;100623.91;;;29.67;100.00
4044;BME280;2036;51.578;7.108;2022-09-12T14:03:00;100624.16;;;29.54;100.00
4044;BME280;2036;51.578;7.108;2022-09-12T14:05:54;100621.78;;;29.69;100.00
4044;BME280;2036;51.578;7.108;2022-09-12T14:08:22;100626.59;;;29.79;100.00
4044;BME280;2036;51.578;7.108;2022-09-12T14:10:49;100623.63;;;29.81;100.00
4044;BME280;2036;51.578;7.108;2022-09-12T14:13:20;100617.88;;;29.65;100.00
4044;BME280;2036;51.578;7.108;2022-09-12T14:15:50;100612.09;;;29.73;100.00
4044;BME280;2036;51.578;7.108;2022-09-12T14:18:29;100609.28;;;29.68;100.00
4044;BME280;2036;51.578;7.108;2022-09-12T14:23:55;100607.66;;;29.67;100.00
4044;BME280;2036;51.578;7.108;2022-09-12T14:26:22;100598.78;;;29.55;100.00
4044;BME280;2036;51.578;7.108;2022-09-12T14:28:49;100596.66;;;28.83;96.02
4044;BME280;2036;51.578;7.108;2022-09-12T14:33:47;100596.41;;;28.50;100.00
4044;BME280;2036;51.578;7.108;2022-09-12T14:36:31;100591.53;;;28.17;100.00
4044;BME280;2036;51.578;7.108;2022-09-12T14:39:04;100587.09;;;27.93;100.00
4044;BME280;2036;51.578;7.108;2022-09-12T14:41:37;100594.03;;;27.70;100.00
4044;BME280;2036;51.578;7.108;2022-09-12T14:44:23;100588.63;;;27.41;100.00
4044;BME280;2036;51.578;7.108;2022-09-12T14:46:49;100590.59;;;27.16;100.00
4044;BME280;2036;51.578;7.108;2022-09-12T14:49:31;100573.81;;;26.95;100.00
4044;BME280;2036;51.578;7.108;2022-09-12T14:52:04;100576.66;;;26.82;100.00
4044;BME280;2036;51.578;7.108;2022-09-12T14:57:36;100563.47;;;26.25;100.00
4044;BME280;2036;51.578;7.108;2022-09-12T15:00:22;100567.19;;;26.24;100.00
4044;BME280;2036;51.578;7.108;2022-09-12T15:02:51;100564.56;;;26.17;100.00
4044;BME280;2036;51.578;7.108;2022-09-12T15:05:22;100559.63;;;26.08;100.00
4044;BME280;2036;51.578;7.108;2022-09-12T15:07:59;100554.09;;;26.03;100.00
4044;BME280;2036;51.578;7.108;2022-09-12T15:10:36;100559.75;;;25.95;100.00
4044;BME280;2036;51.578;7.108;2022-09-12T15:13:15;100558.50;;;25.97;100.00
4044;BME280;2036;51.578;7.108;2022-09-12T15:15:48;100544.09;;;25.85;100.00
4044;BME280;2036;51.578;7.108;2022-09-12T15:18:15;100547.69;;;25.72;100.00
4044;BME280;2036;51.578;7.108;2022-09-12T15:20:43;100553.69;;;25.68;100.00
4044;BME280;2036;51.578;7.108;2022-09-12T15:25:55;100541.09;;;25.68;100.00
4044;BME280;2036;51.578;7.108;2022-09-12T15:28:22;100536.44;;;25.51;100.00
4044;BME280;2036;51.578;7.108;2022-09-12T15:30:52;100537.50;;;25.37;100.00
4044;BME280;2036;51.578;7.108;2022-09-12T15:33:20;100535.50;;;25.26;100.00
4044;BME280;2036;51.578;7.108;2022-09-12T15:35:47;100536.19;;;25.14;100.00
4044;BME280;2036;51.578;7.108;2022-09-12T15:38:14;100537.34;;;25.25;100.00
4044;BME280;2036;51.578;7.108;2022-09-12T15:40:40;100543.97;;;25.23;100.00
4044;BME280;2036;51.578;7.108;2022-09-12T15:43:06;100541.97;;;25.11;100.00
4044;BME280;2036;51.578;7.108;2022-09-12T15:45:33;100535.59;;;25.06;100.00
4044;BME280;2036;51.578;7.108;2022-09-12T15:48:00;100543.22;;;25.09;100.00
4044;BME280;2036;51.578;7.108;2022-09-12T15:50:27;100537.03;;;25.02;100.00
4044;BME280;2036;51.578;7.108;2022-09-12T15:52:54;100529.03;;;24.89;100.00
4044;BME280;2036;51.578;7.108;2022-09-12T15:55:25;100526.97;;;24.91;100.00
4044;BME280;2036;51.578;7.108;2022-09-12T15:57:52;100524.09;;;24.86;100.00
4044;BME280;2036;51.578;7.108;2022-09-12T16:00:18;100532.34;;;24.78;100.00
4044;BME280;2036;51.578;7.108;2022-09-12T16:02:46;100525.97;;;24.66;100.00
4044;BME280;2036;51.578;7.108;2022-09-12T16:05:21;100517.28;;;24.64;100.00
4044;BME280;2036;51.578;7.108;2022-09-12T16:07:47;100529.28;;;24.61;100.00
4044;BME280;2036;51.578;7.108;2022-09-12T16:10:18;100520.63;;;24.46;100.00
4044;BME280;2036;51.578;7.108;2022-09-12T16:12:44;100509.06;;;24.45;100.00
4044;BME280;2036;51.578;7.108;2022-09-12T16:15:20;100509.50;;;24.36;100.00
4044;BME280;2036;51.578;7.108;2022-09-12T16:17:47;100502.88;;;24.38;100.00
4044;BME280;2036;51.578;7.108;2022-09-12T16:20:13;100505.38;;;24.33;100.00
4044;BME280;2036;51.578;7.108;2022-09-12T16:22:39;100500.84;;;24.27;100.00